Airfield :
LOGIN :

Register | Disclaimer

   EN    FR    IT 

 










Legend :    VFR   Marginal VFR   IFR   Intensive IFR   Very Intensive IFR
Visi :
Ceiling :
>= 8 km
>= 3000ft
5 to 8 km
1000 to 3000 ft
1500m to 5 km
500 to 1000 ft
800 to 1500m
200 to 500 ft
< 800m
< 200 ft
Symbols :   Thunderstorms  Fog  Heavy snow  Heavy precipitations  Wind > 20 kt
SIGMETs :     Misc.  Thunderstorms  Icing  Turbulence  Mountain Waves  Volcanic Ashes







- Airport Elevation : 83 ft
- IATA code : LHR
- Download approach charts


EGLL - London Heathrow

CURRENT METAR :
  • 221550Z AUTO 24009KT 200V260 9999 OVC017 11/07 Q1027 NOSIG

EXPIRED METARs :
  • 221520Z AUTO 23010KT 9999 OVC016 11/07 Q1027
  • 221450Z AUTO 23009KT 190V250 9999 BKN015 OVC019 11/07 Q1027
  • 221420Z AUTO 22009KT 190V250 9999 BKN013 OVC017 11/07 Q1027 BECMG BKN015
  • 221350Z AUTO 23008KT 9999 OVC013 10/07 Q1028 BECMG BKN015
  • 221320Z AUTO 22008KT 9999 OVC012 10/07 Q1028 BECMG BKN015

TAF TAF EGLL
Valid from the 22 at 12:00 until the 23 at 18:00 UTC


221054Z 2212/2318 22008KT 9999 BKN018
PROB30
TEMPO 2212/2215 BKN014
TEMPO 2302/2310 7000 -RADZ BKN012
BECMG 2305/2308 02010KT
No reported NOTAMs for that airfield.
1 SIGMET reported for the London FIR (EGTT) :
 
Severe mountain waves
EGTT SIGMET 02 VALID 221500/221900 EGRR
EGTT LONDON FIR SEV MTW FCST WI N5500 W00027 - N5333 E00023 - N5159 W00300 - N5201 W00424 - N5313 W00355 - N5320 W00239 - N5436 W00325 - N5500 W00240 - N5500 W00027 FL030/150 STNR WKN=



MET'MAP, your aeronautical weather chart ! - Copyright ORBIFLY December 2007 - Disclaimer

ORBIFLY MET'MAP TEAM :

Programming & Development : Alexandra Zaïnal
Concept & Development : Baudouin d'Aumeries
Co-Development & Prog : Marc-Olivier Méhu
Technical & hardware support : Manuel Goepfert

Contact : metmap@orbifly.com




SOURCES & CREDITS :

   NOAA